EDT,Max TemperatureF,Mean TemperatureF,Min TemperatureF,Max Dew PointF,MeanDew PointF,Min DewpointF,Max Humidity, Mean Humidity, Min Humidity, Max Sea Level PressureIn, Mean Sea Level PressureIn, Min Sea Level PressureIn, Max VisibilityMiles, Mean VisibilityMiles, Min VisibilityMiles, Max Wind SpeedMPH, Mean Wind SpeedMPH, Max Gust SpeedMPH,PrecipitationIn, CloudCover, Events, WindDirDegrees
2013-9-1,89,81,73,78,75,73,100,86,61,29.86,29.82,29.77,10,10,10,13,8,,0.00,2,Rain,169
2013-9-2,86,79,73,77,75,73,100,92,70,29.79,29.76,29.73,10,10,9,14,6,,0.00,2,Rain,185
2013-9-3,83,76,67,75,68,58,100,77,48,29.93,29.80,29.72,10,10,6,17,7,24,0.00,0,,275
2013-9-4,80,70,61,62,58,51,88,67,37,30.06,30.01,29.94,10,10,10,12,7,,0.00,0,,272
2013-9-5,82,72,63,64,61,48,97,69,48,30.12,30.03,29.99,10,10,10,14,8,22,0.00,2,,280
2013-9-6,72,64,57,54,50,48,77,60,44,30.25,30.19,30.13,10,10,10,12,8,,0.00,0,,15
2013-9-7,76,64,51,62,55,49,94,83,54,30.14,30.06,29.94,10,10,7,10,4,,0.00,0,,273
2013-9-8,85,74,64,67,64,54,91,72,50,30.06,29.91,29.86,10,10,10,15,8,24,0.00,4,,277
2013-9-9,75,66,57,68,60,49,96,76,56,30.21,30.16,30.09,10,10,10,13,10,18,0.00,4,,86
2013-9-10,89,78,67,74,72,68,99,85,60,30.19,30.15,30.10,10,10,10,15,9,,0.00,3,,185
2013-9-11,93,82,73,76,73,69,99,76,50,30.15,30.10,30.03,10,10,9,16,9,20,0.00,0,,189
2013-9-12,91,81,71,74,72,66,100,86,46,30.01,29.82,29.73,10,8,4,18,9,23,0.43,3,Rain-Thunderstorm,197
2013-9-13,77,70,60,72,63,52,100,79,45,29.89,29.74,29.67,10,9,6,18,9,23,0.00,4,,287
2013-9-14,67,60,52,54,49,48,94,71,50,30.16,30.04,29.91,10,10,10,14,8,22,0.00,2,Rain,324
2013-9-15,74,60,48,58,53,48,99,77,50,30.24,30.17,30.12,10,10,10,14,5,,0.00,0,,225
2013-9-16,72,64,57,64,59,53,93,80,56,30.22,30.10,30.04,10,10,9,14,10,20,0.00,4,,309
2013-9-17,66,58,50,53,46,42,94,70,44,30.42,30.35,30.24,10,10,10,16,10,20,0.00,1,,28
2013-9-18,68,56,44,54,50,44,99,74,52,30.35,30.28,30.22,10,10,5,12,5,,0.00,0,Rain,104
2013-9-19,74,62,50,57,53,50,100,80,45,30.22,30.16,30.10,10,9,2,13,4,,0.00,0,Rain,168
2013-9-20,76,66,54,62,57,53,99,78,57,30.11,30.07,30.00,10,10,10,10,6,,0.00,0,,141
2013-9-21,81,66,52,70,60,52,100,90,47,30.00,29.85,29.69,10,7,0,18,6,25,0.29,2,Fog-Rain,168
2013-9-22,72,63,53,68,59,48,100,82,41,29.93,29.76,29.67,10,10,9,16,10,22,0.08,4,Rain,299
2013-9-23,66,56,47,48,45,42,93,66,47,30.07,30.02,29.94,10,10,10,17,10,22,0.00,1,,323
2013-9-24,70,58,45,51,46,43,92,70,39,30.09,30.02,29.94,10,10,10,13,6,18,0.00,0,,298
2013-9-25,73,60,48,57,53,47,99,78,47,29.97,29.93,29.89,10,10,10,9,5,,0.00,0,Rain,6
2013-9-26,73,62,53,60,55,47,99,82,42,30.08,30.00,29.93,10,10,10,9,4,,0.00,1,,57
2013-9-27,71,64,57,60,55,52,99,77,50,30.25,30.18,30.09,10,10,10,12,6,,0.00,6,Rain,75
2013-9-28,72,62,54,57,55,51,99,75,52,30.31,30.26,30.22,10,10,10,14,9,20,0.00,2,,46
2013-9-29,71,62,52,61,55,50,100,81,55,30.21,30.15,30.07,10,10,10,12,6,,0.00,2,,30
2013-9-30,74,61,49,59,52,49,99,76,44,30.09,30.05,30.00,10,10,3,10,4,,0.00,1,,332